Time;durP1;ratioP1;P1;durP2;ratioP2;P2;SDS_P1;SDS_P2;PMS_P1;PMS_P2;Temp;Humidity;BMP_temperature;BMP_pressure;BME280_temperature;BME280_humidity;BME280_pressure;Samples;Min_cycle;Max_cycle;Signal;HPM_P1;HPM_P2
2022/03/23 00:01:45;;;;;;;;;;;;;;;9.44;31.27;101162.41;5272268;27;33657;-96
2022/03/23 00:05:17;;;;;;;;;;;;;;;9.47;31.11;101159.00;5272714;27;33207;-96
2022/03/23 00:08:02;;;;;;;;;;;;;;;9.27;31.28;101163.88;5271290;27;34647;-96
2022/03/23 00:11:33;;;;;;;;;;;;;;;9.49;31.03;101160.75;5277978;27;32769;-96
2022/03/23 00:14:22;;;;;;;;;;;;;;;9.19;31.18;101161.19;5290735;27;35114;-96
2022/03/23 00:17:52;;;;;;;;;;;;;;;9.42;31.28;101156.34;5271575;27;33089;-96
2022/03/23 00:21:43;;;;;;;;;;;;;;;9.21;31.44;101150.88;5275576;27;34721;-96
2022/03/23 00:25:43;;;;;;;;;;;;;;;9.29;31.24;101150.12;5260230;27;34772;-94
2022/03/23 00:28:54;;;;;;;;;;;;;;;9.28;31.36;101147.50;5280474;27;34662;-96
2022/03/23 00:32:09;;;;;;;;;;;;;;;9.38;31.27;101142.50;5278429;27;32750;-96
2022/03/23 00:34:52;;;;;;;;;;;;;;;9.07;32.00;101148.03;5261547;27;32986;-96
2022/03/23 00:38:24;;;;;;;;;;;;;;;9.19;31.30;101137.88;5276897;27;33458;-96
2022/03/23 00:41:58;;;;;;;;;;;;;;;9.20;31.75;101142.19;5280079;27;33880;-96
2022/03/23 00:45:23;;;;;;;;;;;;;;;8.78;32.68;101143.25;5262829;27;35622;-96
2022/03/23 00:48:55;;;;;;;;;;;;;;;8.82;32.51;101139.88;5282308;27;34309;-95
2022/03/23 00:52:27;;;;;;;;;;;;;;;8.81;32.55;101135.53;5275561;27;32630;-96
2022/03/23 00:55:36;;;;;;;;;;;;;;;9.03;31.85;101139.34;5261234;27;34795;-96
2022/03/23 00:58:45;;;;;;;;;;;;;;;9.02;32.03;101127.25;5262310;27;34317;-95
2022/03/23 01:01:36;;;;;;;;;;;;;;;8.94;31.79;101127.12;5260791;27;33899;-95
2022/03/23 01:05:09;;;;;;;;;;;;;;;8.71;32.42;101131.91;5280499;27;32789;-96
2022/03/23 01:08:28;;;;;;;;;;;;;;;8.22;33.57;101124.94;5279819;27;34401;-95
2022/03/23 01:12:16;;;;;;;;;;;;;;;;;;;;;
2022/03/23 01:20:14;;;;;;;;;;;;;;;;;;;;;
2022/03/23 01:34:46;;;;;;;;;;;;;;;8.31;32.34;101115.63;5263815;27;31826;-96
2022/03/23 01:38:37;;;;;;;;;;;;;;;8.25;32.62;101106.88;5280343;27;33455;-96
2022/03/23 01:42:14;;;;;;;;;;;;;;;8.38;32.46;101108.84;5261939;27;34146;-96
2022/03/23 01:45:45;;;;;;;;;;;;;;;8.07;31.97;101105.69;5280717;27;32271;-96
2022/03/23 01:49:34;;;;;;;;;;;;;;;8.49;31.83;101104.78;5280190;27;31982;-96
2022/03/23 01:53:22;;;;;;;;;;;;;;;;;;;;;
2022/03/23 01:56:28;;;;;;;;;;;;;;;8.44;31.72;101103.84;5265750;27;33096;-96
2022/03/23 01:59:43;;;;;;;;;;;;;;;8.64;31.56;101106.78;5283902;27;33284;-96
2022/03/23 02:02:46;;;;;;;;;;;;;;;8.63;30.80;101101.59;5266549;27;32229;-96
2022/03/23 02:06:12;;;;;;;;;;;;;;;8.70;30.90;101101.72;5265809;27;34372;-96
2022/03/23 02:09:57;;;;;;;;;;;;;;;8.79;30.52;101111.31;5277058;27;33520;-96
2022/03/23 02:13:16;;;;;;;;;;;;;;;8.97;30.61;101108.19;5262547;27;34085;-96
2022/03/23 02:16:47;;;;;;;;;;;;;;;9.05;30.53;101101.41;5281220;27;32117;-96
2022/03/23 02:19:53;;;;;;;;;;;;;;;9.01;29.75;101101.34;5284363;27;32960;-96
2022/03/23 02:23:12;;;;;;;;;;;;;;;9.16;30.00;101107.63;5303505;27;32995;-96
2022/03/23 02:26:36;;;;;;;;;;;;;;;9.05;29.76;101100.53;5302971;27;34198;-96
2022/03/23 02:29:49;;;;;;;;;;;;;;;9.33;29.23;101097.53;5302901;27;33201;-96
2022/03/23 02:33:05;;;;;;;;;;;;;;;9.47;29.31;101095.13;5287426;27;34000;-96
2022/03/23 02:36:00;;;;;;;;;;;;;;;9.54;29.79;101099.56;5284902;27;34334;-96
2022/03/23 02:39:27;;;;;;;;;;;;;;;9.65;29.68;101110.06;5302392;27;33237;-96
2022/03/23 02:43:21;;;;;;;;;;;;;;;9.64;29.63;101107.44;5284883;27;33341;-96
2022/03/23 02:46:16;;;;;;;;;;;;;;;9.27;30.10;101101.75;5302689;27;35443;-96
2022/03/23 02:49:20;;;;;;;;;;;;;;;9.29;30.08;101100.91;5284467;27;35310;-96
2022/03/23 03:03:35;;;;;;;;;;;;;;;8.87;30.09;101102.00;5301968;27;37652;-96
2022/03/23 03:06:54;;;;;;;;;;;;;;;8.81;30.64;101106.19;5305485;27;34000;-96
2022/03/23 03:09:50;;;;;;;;;;;;;;;9.32;29.50;101100.94;5286242;27;32466;-96
2022/03/23 03:13:45;;;;;;;;;;;;;;;9.63;29.30;101100.50;5285509;27;33282;-96
2022/03/23 03:16:56;;;;;;;;;;;;;;;9.49;29.61;101096.00;5284386;27;33265;-96
2022/03/23 03:20:13;;;;;;;;;;;;;;;9.52;29.68;101101.25;5300555;27;34191;-96
2022/03/23 03:23:30;;;;;;;;;;;;;;;9.47;29.98;101105.50;5283627;27;32590;-96
2022/03/23 03:27:01;;;;;;;;;;;;;;;9.09;30.25;101110.97;5301967;27;33374;-96
2022/03/23 03:30:18;;;;;;;;;;;;;;;9.29;30.24;101100.91;5284500;27;32701;-96
2022/03/23 03:33:49;;;;;;;;;;;;;;;9.50;29.13;101096.91;5282620;27;33371;-96
2022/03/23 03:36:58;;;;;;;;;;;;;;;9.30;29.72;101097.50;5300383;27;32444;-96
2022/03/23 03:40:27;;;;;;;;;;;;;;;9.39;29.66;101089.81;5300680;27;34435;-96
2022/03/23 03:43:02;;;;;;;;;;;;;;;9.22;29.43;101098.22;5301255;27;34957;-96
2022/03/23 03:46:13;;;;;;;;;;;;;;;9.32;29.64;101098.34;5283509;27;33993;-96
2022/03/23 03:49:05;;;;;;;;;;;;;;;8.69;30.44;101087.03;5284223;27;33497;-96
2022/03/23 03:52:34;;;;;;;;;;;;;;;9.40;29.40;101088.13;5301729;27;34313;-96
2022/03/23 03:56:24;;;;;;;;;;;;;;;9.39;29.23;101087.22;5304796;27;34283;-96
2022/03/23 03:59:36;;;;;;;;;;;;;;;9.16;29.54;101091.22;5301737;27;32606;-96
2022/03/23 04:02:51;;;;;;;;;;;;;;;9.29;29.33;101093.12;5295378;27;192201;-96
2022/03/23 04:06:21;;;;;;;;;;;;;;;9.65;28.94;101094.50;5300243;27;34415;-96
2022/03/23 04:09:30;;;;;;;;;;;;;;;9.64;28.97;101103.12;5302244;27;33164;-96
2022/03/23 04:13:02;;;;;;;;;;;;;;;9.29;29.34;101095.72;5284712;27;33937;-96
2022/03/23 04:16:11;;;;;;;;;;;;;;;9.42;29.48;101096.75;5301852;27;33614;-96
2022/03/23 04:19:11;;;;;;;;;;;;;;;9.55;29.26;101093.50;5285045;27;33092;-96
2022/03/23 04:22:42;;;;;;;;;;;;;;;9.97;28.62;101104.41;5257703;27;34290;-96
2022/03/23 04:25:55;;;;;;;;;;;;;;;9.90;28.75;101095.66;5259335;27;33557;-96
2022/03/23 04:29:26;;;;;;;;;;;;;;;9.67;28.67;101091.94;5259525;27;31603;-96
2022/03/23 04:32:14;;;;;;;;;;;;;;;9.96;28.29;101100.94;5260106;27;33151;-95
2022/03/23 04:35:26;;;;;;;;;;;;;;;10.30;28.24;101095.31;5259874;27;33367;-96
2022/03/23 04:38:19;;;;;;;;;;;;;;;10.36;27.81;101091.03;5259378;27;33398;-96
2022/03/23 04:42:08;;;;;;;;;;;;;;;9.92;28.59;101090.50;5261235;27;31896;-96
2022/03/23 04:45:06;;;;;;;;;;;;;;;10.24;28.01;101089.16;5242206;27;33210;-95
2022/03/23 04:47:58;;;;;;;;;;;;;;;10.15;28.13;101090.78;5236374;27;35339;-94
2022/03/23 04:51:14;;;;;;;;;;;;;;;10.30;28.00;101090.97;5236036;27;32553;-96
2022/03/23 04:54:42;;;;;;;;;;;;;;;10.15;28.02;101089.06;5257555;27;32312;-95
2022/03/23 04:57:57;;;;;;;;;;;;;;;10.44;27.89;101094.59;5238851;27;34461;-94
2022/03/23 05:01:25;;;;;;;;;;;;;;;10.11;28.08;101100.25;5253203;27;33482;-94
2022/03/23 05:04:57;;;;;;;;;;;;;;;10.24;28.03;101106.44;5253704;27;34472;-95
2022/03/23 05:08:27;;;;;;;;;;;;;;;10.42;27.82;101108.41;5252564;27;32493;-94
2022/03/23 05:11:04;;;;;;;;;;;;;;;10.45;27.81;101100.63;5234271;27;32948;-95
2022/03/23 05:14:00;;;;;;;;;;;;;;;10.60;27.78;101110.28;5259952;27;33533;-96
2022/03/23 05:17:32;;;;;;;;;;;;;;;10.73;27.54;101112.16;5241847;27;33206;-96
2022/03/23 05:21:02;;;;;;;;;;;;;;;11.04;27.18;101126.28;5273023;27;33365;-96
2022/03/23 05:24:39;;;;;;;;;;;;;;;10.51;27.97;101126.66;5303137;27;33247;-96
2022/03/23 05:28:09;;;;;;;;;;;;;;;10.30;28.08;101126.44;5301892;27;36094;-96
2022/03/23 05:31:39;;;;;;;;;;;;;;;10.42;28.13;101131.75;5302664;27;34099;-96
2022/03/23 05:35:12;;;;;;;;;;;;;;;10.48;28.19;101124.00;5302454;27;33306;-96
2022/03/23 05:38:33;;;;;;;;;;;;;;;10.76;27.75;101129.50;5284298;27;33342;-96
2022/03/23 05:42:25;;;;;;;;;;;;;;;10.46;28.14;101117.94;5303068;27;34329;-96
2022/03/23 05:46:25;;;;;;;;;;;;;;;10.87;27.96;101133.03;5279722;27;32827;-96
2022/03/23 05:50:02;;;;;;;;;;;;;;;10.63;28.13;101118.09;5282472;27;33672;-96
2022/03/23 05:54:05;;;;;;;;;;;;;;;10.56;28.65;101129.28;5303205;27;35728;-96
2022/03/23 05:58:12;;;;;;;;;;;;;;;11.03;28.10;101124.50;5300107;27;35072;-96
2022/03/23 06:44:10;;;;;;;;;;;;;;;;;;;;;
2022/03/23 06:50:38;;;;;;;;;;;;;;;11.41;27.26;101136.06;5240902;27;34574;-95
2022/03/23 06:53:12;;;;;;;;;;;;;;;11.21;27.96;101133.28;5218188;27;35145;-96
2022/03/23 06:56:43;;;;;;;;;;;;;;;11.98;27.17;101133.78;5216771;27;34491;-96
2022/03/23 06:59:56;;;;;;;;;;;;;;;12.06;27.27;101127.75;5235581;27;34102;-96
2022/03/23 07:03:05;;;;;;;;;;;;;;;11.67;27.43;101128.37;5233409;27;33718;-96
2022/03/23 07:05:56;;;;;;;;;;;;;;;12.06;27.19;101124.28;5239603;27;33593;-95
2022/03/23 07:12:31;;;;;;;;;;;;;;;12.53;26.52;101131.34;5239428;27;33307;-96
2022/03/23 07:15:04;;;;;;;;;;;;;;;12.56;26.65;101134.84;5255770;27;33048;-96
2022/03/23 07:18:33;;;;;;;;;;;;;;;12.61;26.77;101132.22;5260133;27;35269;-96
2022/03/23 07:22:03;;;;;;;;;;;;;;;12.62;26.32;101143.53;5241881;27;33972;-96
2022/03/23 07:24:47;;;;;;;;;;;;;;;12.81;26.38;101143.53;5239108;27;33273;-96
2022/03/23 07:28:00;;;;;;;;;;;;;;;12.35;26.61;101148.66;5234054;27;33422;-96
2022/03/23 07:30:50;;;;;;;;;;;;;;;12.80;26.38;101148.75;5236939;27;33008;-96
2022/03/23 07:34:19;;;;;;;;;;;;;;;12.92;26.26;101145.28;5236236;27;34365;-96
2022/03/23 07:37:51;;;;;;;;;;;;;;;12.99;26.00;101136.59;5237749;27;32954;-95
2022/03/23 07:41:00;;;;;;;;;;;;;;;12.43;26.34;101134.81;5247863;27;32870;-96
2022/03/23 07:44:32;;;;;;;;;;;;;;;13.16;25.98;101134.84;5251084;27;36821;-95
2022/03/23 07:48:00;;;;;;;;;;;;;;;13.17;25.75;101136.59;5251490;27;35095;-96
2022/03/23 07:51:34;;;;;;;;;;;;;;;13.75;25.23;101137.38;5231534;27;33818;-96
2022/03/23 07:54:28;;;;;;;;;;;;;;;14.16;24.83;101133.75;5231502;27;32720;-96
2022/03/23 07:57:40;;;;;;;;;;;;;;;13.99;24.91;101133.81;5234597;27;33064;-95
2022/03/23 08:00:56;;;;;;;;;;;;;;;14.18;24.82;101137.22;5253061;27;35271;-95
2022/03/23 08:03:54;;;;;;;;;;;;;;;14.15;25.04;101142.47;5233700;27;33906;-95
2022/03/23 08:07:22;;;;;;;;;;;;;;;13.49;25.56;101143.53;5233127;27;32024;-96
2022/03/23 08:10:16;;;;;;;;;;;;;;;13.56;25.38;101134.84;5234533;27;32744;-95
2022/03/23 08:13:45;;;;;;;;;;;;;;;13.54;25.42;101139.19;5254290;27;33923;-95
2022/03/23 08:16:34;;;;;;;;;;;;;;;14.39;24.84;101131.03;5252134;27;34086;-96
2022/03/23 08:20:32;;;;;;;;;;;;;;;13.98;25.16;101132.94;5234980;27;33315;-96
2022/03/23 08:23:19;;;;;;;;;;;;;;;13.78;25.43;101134.78;5257707;27;34120;-96
2022/03/23 08:26:47;;;;;;;;;;;;;;;14.45;24.74;101133.62;5238762;27;34304;-96
2022/03/23 08:29:57;;;;;;;;;;;;;;;14.69;24.03;101138.69;5256053;27;34521;-95
2022/03/23 08:33:06;;;;;;;;;;;;;;;14.65;24.35;101139.59;5255416;27;33669;-96
2022/03/23 08:36:56;;;;;;;;;;;;;;;14.86;24.00;101132.47;5235904;27;32935;-96
2022/03/23 08:40:29;;;;;;;;;;;;;;;15.50;23.43;101123.19;5254889;27;33621;-96
2022/03/23 08:43:41;;;;;;;;;;;;;;;15.51;23.22;101124.91;5234411;27;33860;-96
2022/03/23 08:54:41;;;;;;;;;;;;;;;15.39;23.29;101127.66;5215905;27;35030;-95
2022/03/23 08:58:12;;;;;;;;;;;;;;;15.34;23.31;101127.69;5210084;27;34226;-96
2022/03/23 09:01:02;;;;;;;;;;;;;;;15.25;23.25;101123.44;5232638;27;33675;-95
2022/03/23 09:04:41;;;;;;;;;;;;;;;16.01;22.56;101118.25;5207226;27;33086;-95
2022/03/23 09:16:54;;;;;;;;;;;;;;;15.64;22.65;101121.28;5105279;28;33401;-96
2022/03/23 09:32:28;;;;;;;;;;;;;;;16.46;21.86;101108.03;5166629;27;34343;-96
2022/03/23 09:35:40;;;;;;;;;;;;;;;16.65;22.01;101103.41;5187696;27;33010;-96
2022/03/23 09:58:45;;;;;;;;;;;;;;;17.01;20.19;101093.19;5053800;28;35666;-95
2022/03/23 10:02:09;;;;;;;;;;;;;;;17.49;19.53;101088.84;5062814;28;32633;-95
2022/03/23 10:09:51;;;;;;;;;;;;;;;16.85;19.08;101092.62;5066528;28;34302;-96
2022/03/23 10:13:16;;;;;;;;;;;;;;;17.17;19.62;101080.69;5063108;28;33555;-96
2022/03/23 10:16:45;;;;;;;;;;;;;;;16.88;19.60;101078.59;5050151;28;31947;-95
2022/03/23 10:20:44;;;;;;;;;;;;;;;16.91;19.76;101073.28;5107899;28;34225;-95
2022/03/23 10:23:51;;;;;;;;;;;;;;;17.46;19.50;101072.28;5085907;28;35981;-94
2022/03/23 10:26:21;;;;;;;;;;;;;;;17.64;19.19;101076.31;5122481;27;32660;-94
2022/03/23 10:30:14;;;;;;;;;;;;;;;17.43;19.13;101072.34;5153664;27;32302;-95
2022/03/23 10:34:10;;;;;;;;;;;;;;;17.86;18.65;101061.88;5144425;27;34121;-96
2022/03/23 10:37:35;;;;;;;;;;;;;;;18.44;18.38;101056.22;5169109;27;34575;-96
2022/03/23 10:41:09;;;;;;;;;;;;;;;17.46;19.12;101054.78;5151407;27;35462;-95
2022/03/23 10:44:52;;;;;;;;;;;;;;;17.31;19.31;101051.59;5150848;27;32063;-96
2022/03/23 10:48:33;;;;;;;;;;;;;;;17.94;18.32;101045.94;5231855;27;32645;-95
2022/03/23 10:52:12;;;;;;;;;;;;;;;18.42;17.49;101036.97;5253213;27;34197;-95
2022/03/23 10:56:03;;;;;;;;;;;;;;;17.55;18.89;101032.75;5226199;27;34951;-96
2022/03/23 10:59:25;;;;;;;;;;;;;;;18.18;18.27;101027.91;5256252;27;32919;-96
2022/03/23 11:03:04;;;;;;;;;;;;;;;18.59;17.78;101026.06;5260370;27;33693;-95
2022/03/23 11:05:54;;;;;;;;;;;;;;;18.06;18.08;101032.53;5241576;27;34272;-96
2022/03/23 11:15:46;;;;;;;;;;;;;;;18.08;17.86;101019.38;5241479;27;34548;-94
2022/03/23 11:15:51;;;;;;;;;;;;;;;18.49;17.24;101009.66;5250514;27;33010;-96
2022/03/23 11:19:33;;;;;;;;;;;;;;;18.81;17.29;100992.22;5249376;27;34078;-96
2022/03/23 11:22:54;;;;;;;;;;;;;;;19.38;16.88;101002.91;5256817;27;33727;-96
2022/03/23 11:26:36;;;;;;;;;;;;;;;19.49;16.25;100999.09;5257797;27;33352;-96
2022/03/23 11:30:45;;;;;;;;;;;;;;;19.62;16.69;100988.16;5242637;27;35261;-96
2022/03/23 11:34:46;;;;;;;;;;;;;;;19.92;15.89;100988.16;5258754;27;36658;-96
2022/03/23 11:37:41;;;;;;;;;;;;;;;19.48;16.38;100986.84;5239642;27;34304;-96
2022/03/23 11:41:02;;;;;;;;;;;;;;;18.86;16.62;100977.19;5239251;27;31931;-96
2022/03/23 11:44:43;;;;;;;;;;;;;;;18.96;16.42;100973.41;5239062;27;33251;-96
2022/03/23 11:49:12;;;;;;;;;;;;;;;19.55;16.01;100962.94;5184519;27;35073;-96
2022/03/23 11:57:25;;;;;;;;;;;;;;;19.55;16.01;100957.69;5213633;27;34025;-96
2022/03/23 12:00:15;;;;;;;;;;;;;;;19.85;15.22;100952.41;5214096;27;34299;-96
2022/03/23 12:04:13;;;;;;;;;;;;;;;19.86;15.13;100940.97;5215626;27;32928;-96
2022/03/23 12:07:51;;;;;;;;;;;;;;;20.19;14.96;100940.78;5217239;27;35916;-96
2022/03/23 12:11:49;;;;;;;;;;;;;;;20.11;14.95;100935.75;5211534;27;34139;-96
2022/03/23 12:15:10;;;;;;;;;;;;;;;20.22;15.46;100917.84;5231691;27;33950;-96
2022/03/23 12:19:00;;;;;;;;;;;;;;;20.59;15.05;100918.37;5220979;27;35814;-96
2022/03/23 12:21:38;;;;;;;;;;;;;;;20.11;14.75;100913.84;5235449;27;34797;-96
2022/03/23 12:24:59;;;;;;;;;;;;;;;20.20;14.08;100908.25;5234744;27;32591;-96
2022/03/23 12:27:32;;;;;;;;;;;;;;;20.52;13.66;100901.87;5234404;27;33832;-96
2022/03/23 12:30:08;;;;;;;;;;;;;;;20.66;14.30;100902.28;5234068;27;34322;-96
2022/03/23 12:32:39;;;;;;;;;;;;;;;20.93;13.61;100898.72;5235834;27;32755;-96
2022/03/23 12:35:09;;;;;;;;;;;;;;;20.79;13.46;100894.78;5255222;27;33971;-95
2022/03/23 12:37:39;;;;;;;;;;;;;;;21.36;13.10;100892.66;5238442;27;33703;-94
2022/03/23 12:40:17;;;;;;;;;;;;;;;21.35;12.90;100898.00;5230526;27;34102;-96
2022/03/23 12:42:46;;;;;;;;;;;;;;;21.74;13.08;100893.78;5247976;27;33525;-96
2022/03/23 12:45:17;;;;;;;;;;;;;;;21.32;12.71;100893.69;5250591;27;33936;-96
2022/03/23 12:47:51;;;;;;;;;;;;;;;21.61;12.28;100889.09;5251333;27;32835;-96
2022/03/23 12:59:19;;;;;;;;;;;;;;;21.98;13.18;100872.59;5257108;27;33874;-96
2022/03/23 13:02:28;;;;;;;;;;;;;;;22.13;12.17;100871.06;5234276;27;35466;-96
2022/03/23 13:04:57;;;;;;;;;;;;;;;22.27;12.19;100865.25;5252674;27;34114;-96
2022/03/23 13:07:50;;;;;;;;;;;;;;;22.51;12.22;100858.88;5231618;27;33433;-94
2022/03/23 13:10:24;;;;;;;;;;;;;;;22.47;11.99;100857.31;5238908;27;34260;-94
2022/03/23 13:13:07;;;;;;;;;;;;;;;22.50;11.69;100849.22;5233695;27;32667;-95
2022/03/23 13:15:42;;;;;;;;;;;;;;;22.89;12.42;100860.75;5232150;27;33418;-95
2022/03/23 13:18:34;;;;;;;;;;;;;;;22.83;11.86;100848.62;5245578;27;32213;-96
2022/03/23 13:21:46;;;;;;;;;;;;;;;23.09;11.43;100852.75;5211551;27;33013;-96
2022/03/23 13:24:15;;;;;;;;;;;;;;;23.40;12.43;100844.22;5252822;27;34921;-96
2022/03/23 13:26:56;;;;;;;;;;;;;;;23.81;11.55;100843.16;5255115;27;33910;-95
2022/03/23 13:30:23;;;;;;;;;;;;;;;24.00;11.53;100838.66;5234767;27;31857;-96
2022/03/23 13:33:26;;;;;;;;;;;;;;;24.28;11.84;100831.91;5251088;27;33805;-96
2022/03/23 13:36:34;;;;;;;;;;;;;;;24.03;11.62;100830.53;5235493;27;33246;-96
2022/03/23 13:40:10;;;;;;;;;;;;;;;23.92;11.23;100819.63;5223167;27;32858;-96
2022/03/23 13:43:32;;;;;;;;;;;;;;;24.59;12.00;100820.56;5231119;27;33191;-96
2022/03/23 13:46:50;;;;;;;;;;;;;;;24.72;10.37;100809.28;5248561;27;33319;-96
2022/03/23 13:53:32;;;;;;;;;;;;;;;24.62;10.25;100809.81;5242657;27;34783;-96
2022/03/23 13:56:21;;;;;;;;;;;;;;;25.01;11.09;100802.38;5231854;27;32885;-96
2022/03/23 13:58:52;;;;;;;;;;;;;;;25.26;10.59;100796.59;5228965;27;33415;-96
2022/03/23 14:01:22;;;;;;;;;;;;;;;25.01;10.38;100797.06;5211983;27;33992;-96
2022/03/23 14:03:53;;;;;;;;;;;;;;;23.96;10.45;100789.37;5255696;27;34113;-95
2022/03/23 14:06:25;;;;;;;;;;;;;;;24.06;10.10;100792.41;5250667;27;33211;-96
2022/03/23 14:09:39;;;;;;;;;;;;;;;23.76;10.92;100794.84;5229502;27;34358;-96
2022/03/23 14:12:58;;;;;;;;;;;;;;;24.37;9.94;100788.16;5230085;27;34551;-96
2022/03/23 14:16:26;;;;;;;;;;;;;;;23.61;10.56;100791.12;5255607;27;33968;-96
2022/03/23 14:19:14;;;;;;;;;;;;;;;23.59;10.75;100775.31;5236906;27;33617;-96
2022/03/23 14:23:04;;;;;;;;;;;;;;;23.64;10.23;100775.94;5237283;27;33592;-96
2022/03/23 14:26:49;;;;;;;;;;;;;;;24.53;9.73;100772.31;5235728;27;33884;-96
2022/03/23 14:40:44;;;;;;;;;;;;;;;24.89;9.36;100756.16;5255777;27;33922;-96
2022/03/23 14:43:59;;;;;;;;;;;;;;;25.26;9.33;100746.13;5256663;27;33982;-96
2022/03/23 14:47:09;;;;;;;;;;;;;;;24.76;9.22;100749.81;5232207;27;32585;-96
2022/03/23 14:49:47;;;;;;;;;;;;;;;25.44;8.74;100742.41;5235448;27;32827;-95
2022/03/23 14:52:17;;;;;;;;;;;;;;;25.87;8.74;100736.38;5226969;27;33744;-95
2022/03/23 14:58:49;;;;;;;;;;;;;;;26.16;8.56;100737.25;5237798;27;31959;-96
2022/03/23 15:02:51;;;;;;;;;;;;;;;26.16;8.47;100723.94;5237483;27;33776;-96
2022/03/23 15:17:02;;;;;;;;;;;;;;;26.16;8.51;100710.66;5189375;27;34612;-96
2022/03/23 15:20:15;;;;;;;;;;;;;;;25.72;8.90;100701.75;5170331;27;35841;-96
2022/03/23 15:22:48;;;;;;;;;;;;;;;24.60;9.32;100710.88;5183206;27;34289;-95
2022/03/23 15:25:16;;;;;;;;;;;;;;;23.88;9.66;100700.63;5187169;27;33948;-95
2022/03/23 15:27:45;;;;;;;;;;;;;;;23.81;9.81;100700.91;5186131;27;34116;-95
2022/03/23 15:30:14;;;;;;;;;;;;;;;23.80;10.22;100701.00;5187718;27;34900;-96
2022/03/23 15:32:49;;;;;;;;;;;;;;;23.35;10.35;100700.59;5189182;27;34252;-96
2022/03/23 15:35:23;;;;;;;;;;;;;;;23.32;10.65;100695.47;5186762;27;33563;-94
2022/03/23 15:37:53;;;;;;;;;;;;;;;23.09;11.77;100695.75;5165662;27;35396;-95
2022/03/23 15:40:24;;;;;;;;;;;;;;;22.94;12.32;100692.03;5183866;27;33952;-95
2022/03/23 15:43:05;;;;;;;;;;;;;;;22.69;11.51;100694.97;5193148;27;32733;-96
2022/03/23 15:45:47;;;;;;;;;;;;;;;22.72;11.60;100695.69;5232403;27;33445;-94
2022/03/23 15:48:24;;;;;;;;;;;;;;;22.55;12.29;100695.66;5232834;27;34161;-96
2022/03/23 15:50:58;;;;;;;;;;;;;;;22.37;12.99;100692.94;5235238;27;34033;-96
2022/03/23 15:53:35;;;;;;;;;;;;;;;22.22;13.64;100692.78;5210843;27;33731;-95
2022/03/23 15:56:10;;;;;;;;;;;;;;;22.02;13.80;100686.56;5232076;27;34110;-95
2022/03/23 15:58:43;;;;;;;;;;;;;;;21.70;13.99;100683.56;5230584;27;33725;-95
2022/03/23 16:01:33;;;;;;;;;;;;;;;21.62;12.65;100692.75;5208579;27;33756;-95
2022/03/23 16:05:06;;;;;;;;;;;;;;;21.41;13.27;100683.97;5210589;27;33564;-95
2022/03/23 16:08:20;;;;;;;;;;;;;;;21.18;14.46;100676.97;5222260;27;32435;-95
2022/03/23 16:11:10;;;;;;;;;;;;;;;21.07;15.03;100680.06;5233653;27;33299;-95
2022/03/23 16:13:46;;;;;;;;;;;;;;;20.87;14.99;100683.50;5250850;27;34395;-94
2022/03/23 16:16:37;;;;;;;;;;;;;;;20.70;15.27;100684.16;5252578;27;34808;-95
2022/03/23 16:19:05;;;;;;;;;;;;;;;20.46;14.50;100678.03;5258193;27;32830;-96
2022/03/23 16:21:43;;;;;;;;;;;;;;;20.47;15.52;100685.03;5251894;27;34105;-95
2022/03/23 16:24:54;;;;;;;;;;;;;;;20.13;15.65;100680.19;5230932;27;33527;-95
2022/03/23 16:27:46;;;;;;;;;;;;;;;20.13;16.02;100680.19;5231592;27;33617;-93
2022/03/23 16:31:38;;;;;;;;;;;;;;;19.85;16.10;100677.66;5236968;27;32542;-96
2022/03/23 16:34:44;;;;;;;;;;;;;;;19.68;16.37;100675.62;5237630;27;34403;-96
2022/03/23 16:38:14;;;;;;;;;;;;;;;19.62;16.00;100677.53;5262340;27;34327;-96
2022/03/23 16:41:33;;;;;;;;;;;;;;;19.34;16.03;100676.75;5262784;27;34241;-96
2022/03/23 16:44:00;;;;;;;;;;;;;;;19.18;16.77;100679.91;5242695;27;31811;-95
2022/03/23 16:46:55;;;;;;;;;;;;;;;19.05;16.95;100681.22;5263193;27;33529;-95
2022/03/23 16:49:46;;;;;;;;;;;;;;;18.99;16.80;100673.50;5260072;27;34153;-95
2022/03/23 16:56:21;;;;;;;;;;;;;;;18.37;17.34;100668.44;5242421;27;33552;-95
2022/03/23 16:59:21;;;;;;;;;;;;;;;18.25;17.37;100667.03;5244427;27;33269;-96
2022/03/23 17:01:50;;;;;;;;;;;;;;;18.19;17.53;100677.69;5239298;27;34182;-95
2022/03/23 17:57:50;;;;;;;;;;;;;;;15.71;20.62;100682.59;5097031;28;33653;-96
2022/03/23 18:05:55;;;;;;;;;;;;;;;15.21;21.86;100687.78;5154320;27;33767;-96
2022/03/23 18:17:24;;;;;;;;;;;;;;;15.28;21.31;100694.63;5125668;27;34665;-96
2022/03/23 18:21:16;;;;;;;;;;;;;;;15.21;21.48;100689.53;5082752;28;33745;-96
2022/03/23 18:31:45;;;;;;;;;;;;;;;14.40;23.61;100694.13;4998770;28;33953;-96
2022/03/23 18:34:57;;;;;;;;;;;;;;;14.16;23.44;100693.59;5045173;28;35145;-95
2022/03/23 18:42:34;;;;;;;;;;;;;;;14.00;23.54;100699.84;5067393;28;33283;-96
2022/03/23 18:46:31;;;;;;;;;;;;;;;14.00;23.76;100695.50;5052473;28;34227;-96
2022/03/23 18:49:24;;;;;;;;;;;;;;;13.82;24.06;100688.75;5050626;28;32754;-94
2022/03/23 18:52:14;;;;;;;;;;;;;;;13.68;24.48;100690.63;5095665;28;34095;-95
2022/03/23 18:55:46;;;;;;;;;;;;;;;13.66;24.30;100687.16;5103134;28;32967;-96
2022/03/23 19:29:46;;;;;;;;;;;;;;;12.95;24.57;100674.72;5172256;27;35672;-96
2022/03/23 19:33:33;;;;;;;;;;;;;;;13.09;24.15;100677.19;5168286;27;33553;-96
2022/03/23 19:37:23;;;;;;;;;;;;;;;12.90;24.30;100673.88;5164392;27;34152;-96
2022/03/23 19:41:21;;;;;;;;;;;;;;;;;;;;;
2022/03/23 20:22:56;;;;;;;;;;;;;;;11.31;27.56;100654.50;5024994;28;35002;-96
2022/03/23 20:29:25;;;;;;;;;;;;;;;11.24;27.08;100661.44;5023748;28;34946;-96
2022/03/23 20:32:37;;;;;;;;;;;;;;;11.15;27.47;100663.16;5057870;28;33801;-96
2022/03/23 20:35:49;;;;;;;;;;;;;;;11.03;27.72;100659.69;5060125;28;33348;-95
2022/03/23 20:43:44;;;;;;;;;;;;;;;11.19;27.06;100657.13;5024756;28;31397;-96
2022/03/23 20:50:27;;;;;;;;;;;;;;;11.06;27.47;100656.22;5034889;28;34460;-96
2022/03/23 20:53:49;;;;;;;;;;;;;;;11.18;27.17;100652.78;5064977;28;32911;-94
2022/03/23 21:01:08;;;;;;;;;;;;;;;11.15;26.47;100657.97;5104695;28;34484;-96
2022/03/23 21:04:05;;;;;;;;;;;;;;;11.24;26.16;100655.38;5107858;28;34083;-96
2022/03/23 21:08:03;;;;;;;;;;;;;;;11.34;25.96;100651.91;5109546;28;34717;-95
2022/03/23 21:11:00;;;;;;;;;;;;;;;11.12;26.18;100648.47;5091878;28;33804;-96
2022/03/23 21:13:32;;;;;;;;;;;;;;;11.03;26.26;100649.31;5103563;28;33750;-96
2022/03/23 21:16:56;;;;;;;;;;;;;;;10.98;26.38;100645.00;5100645;28;32782;-95
2022/03/23 21:20:05;;;;;;;;;;;;;;;11.05;26.24;100647.59;5091522;28;33655;-94
2022/03/23 21:22:54;;;;;;;;;;;;;;;11.02;26.37;100642.41;5105952;28;33536;-95
2022/03/23 21:26:26;;;;;;;;;;;;;;;11.02;26.41;100642.41;5108289;28;34280;-94
2022/03/23 21:29:47;;;;;;;;;;;;;;;10.93;26.31;100644.13;5157177;27;33389;-95
2022/03/23 21:33:00;;;;;;;;;;;;;;;10.72;26.68;100632.84;5195867;27;35422;-95
2022/03/23 21:40:03;;;;;;;;;;;;;;;10.75;26.70;100632.88;5215975;27;35225;-96
2022/03/23 21:47:08;;;;;;;;;;;;;;;10.34;27.37;100630.16;5214319;27;34164;-95
2022/03/23 21:51:13;;;;;;;;;;;;;;;;;;;;;
2022/03/23 21:55:14;;;;;;;;;;;;;;;10.56;26.75;100621.59;5167590;27;33113;-96
2022/03/23 21:58:07;;;;;;;;;;;;;;;10.44;26.98;100627.63;5173985;27;33634;-96
2022/03/23 22:02:13;;;;;;;;;;;;;;;10.03;27.90;100624.84;5108911;27;34187;-96
2022/03/23 22:05:45;;;;;;;;;;;;;;;10.16;28.16;100615.38;5166001;27;34379;-96
2022/03/23 22:14:05;;;;;;;;;;;;;;;9.95;28.64;100609.25;5135941;27;34699;-95
2022/03/23 22:18:09;;;;;;;;;;;;;;;10.01;28.58;100605.84;5128328;27;35586;-96
2022/03/23 22:21:48;;;;;;;;;;;;;;;9.86;29.18;100600.56;5139659;27;32368;-96
2022/03/23 22:24:54;;;;;;;;;;;;;;;9.44;29.71;100602.09;5112826;27;32433;-96
2022/03/23 22:28:45;;;;;;;;;;;;;;;9.23;29.80;100600.22;5149753;27;33361;-96
2022/03/23 22:32:35;;;;;;;;;;;;;;;9.73;28.90;100595.34;5140907;27;32799;-96
2022/03/23 22:39:28;;;;;;;;;;;;;;;9.94;28.14;100588.53;5153616;27;33428;-95
2022/03/23 22:42:18;;;;;;;;;;;;;;;9.75;28.42;100595.34;5149750;27;34606;-95
2022/03/23 22:45:08;;;;;;;;;;;;;;;9.69;28.53;100593.59;5128803;27;32650;-95